sensor_id;sensor_type;location;lat;lon;timestamp;temperature;humidity
43673;DHT22;41723;49.326;8.430;2023-07-13T00:00:33;23.10;92.50
43673;DHT22;41723;49.326;8.430;2023-07-13T00:02:59;22.90;94.80
43673;DHT22;41723;49.326;8.430;2023-07-13T00:05:24;23.00;94.20
43673;DHT22;41723;49.326;8.430;2023-07-13T00:07:50;22.70;91.90
43673;DHT22;41723;49.326;8.430;2023-07-13T00:10:16;22.80;92.40
43673;DHT22;41723;49.326;8.430;2023-07-13T00:12:43;22.70;94.00
43673;DHT22;41723;49.326;8.430;2023-07-13T00:15:12;22.70;94.20
43673;DHT22;41723;49.326;8.430;2023-07-13T00:17:37;22.70;93.20
43673;DHT22;41723;49.326;8.430;2023-07-13T00:20:04;22.70;93.00
43673;DHT22;41723;49.326;8.430;2023-07-13T00:22:30;22.70;92.80
43673;DHT22;41723;49.326;8.430;2023-07-13T00:24:55;22.40;91.80
43673;DHT22;41723;49.326;8.430;2023-07-13T00:27:21;22.30;91.70
43673;DHT22;41723;49.326;8.430;2023-07-13T00:29:47;22.30;94.70
43673;DHT22;41723;49.326;8.430;2023-07-13T00:32:12;22.20;92.50
43673;DHT22;41723;49.326;8.430;2023-07-13T00:34:38;22.20;93.10
43673;DHT22;41723;49.326;8.430;2023-07-13T00:37:04;22.20;93.70
43673;DHT22;41723;49.326;8.430;2023-07-13T00:39:32;22.10;92.60
43673;DHT22;41723;49.326;8.430;2023-07-13T00:41:58;22.10;94.00
43673;DHT22;41723;49.326;8.430;2023-07-13T00:44:24;22.10;92.50
43673;DHT22;41723;49.326;8.430;2023-07-13T00:46:50;22.00;94.70
43673;DHT22;41723;49.326;8.430;2023-07-13T00:49:16;22.00;93.00
43673;DHT22;41723;49.326;8.430;2023-07-13T00:51:57;22.00;91.20
43673;DHT22;41723;49.326;8.430;2023-07-13T00:54:27;21.90;92.20
43673;DHT22;41723;49.326;8.430;2023-07-13T00:56:55;22.00;92.00
43673;DHT22;41723;49.326;8.430;2023-07-13T00:59:21;22.10;91.80
43673;DHT22;41723;49.326;8.430;2023-07-13T01:01:47;22.00;92.30
43673;DHT22;41723;49.326;8.430;2023-07-13T01:04:13;22.00;92.50
43673;DHT22;41723;49.326;8.430;2023-07-13T01:06:40;21.90;91.80
43673;DHT22;41723;49.326;8.430;2023-07-13T01:09:07;22.00;93.70
43673;DHT22;41723;49.326;8.430;2023-07-13T01:11:33;21.90;93.10
43673;DHT22;41723;49.326;8.430;2023-07-13T01:14:00;21.90;92.40
43673;DHT22;41723;49.326;8.430;2023-07-13T01:16:37;21.80;92.20
43673;DHT22;41723;49.326;8.430;2023-07-13T01:19:07;21.80;93.50
43673;DHT22;41723;49.326;8.430;2023-07-13T01:21:36;22.00;94.40
43673;DHT22;41723;49.326;8.430;2023-07-13T01:24:08;21.90;91.20
43673;DHT22;41723;49.326;8.430;2023-07-13T01:26:34;21.80;92.00
43673;DHT22;41723;49.326;8.430;2023-07-13T01:28:59;21.70;92.60
43673;DHT22;41723;49.326;8.430;2023-07-13T01:31:25;21.80;91.90
43673;DHT22;41723;49.326;8.430;2023-07-13T01:33:51;21.70;92.40
43673;DHT22;41723;49.326;8.430;2023-07-13T01:36:19;21.80;91.90
43673;DHT22;41723;49.326;8.430;2023-07-13T01:38:46;21.70;92.20
43673;DHT22;41723;49.326;8.430;2023-07-13T01:41:12;21.90;93.80
43673;DHT22;41723;49.326;8.430;2023-07-13T01:43:37;21.90;93.10
43673;DHT22;41723;49.326;8.430;2023-07-13T01:46:04;21.80;92.10
43673;DHT22;41723;49.326;8.430;2023-07-13T01:48:29;21.80;93.80
43673;DHT22;41723;49.326;8.430;2023-07-13T01:50:55;21.80;91.90
43673;DHT22;41723;49.326;8.430;2023-07-13T01:53:21;21.80;93.10
43673;DHT22;41723;49.326;8.430;2023-07-13T01:55:46;21.80;92.50
43673;DHT22;41723;49.326;8.430;2023-07-13T01:58:13;21.80;93.40
43673;DHT22;41723;49.326;8.430;2023-07-13T02:00:38;21.60;92.20
43673;DHT22;41723;49.326;8.430;2023-07-13T02:03:04;21.60;92.10
43673;DHT22;41723;49.326;8.430;2023-07-13T02:05:31;21.60;92.20
43673;DHT22;41723;49.326;8.430;2023-07-13T02:07:57;21.70;94.20
43673;DHT22;41723;49.326;8.430;2023-07-13T02:10:24;21.70;92.80
43673;DHT22;41723;49.326;8.430;2023-07-13T02:12:50;21.70;93.00
43673;DHT22;41723;49.326;8.430;2023-07-13T02:15:16;21.70;93.90
43673;DHT22;41723;49.326;8.430;2023-07-13T02:17:41;21.70;93.30
43673;DHT22;41723;49.326;8.430;2023-07-13T02:20:07;21.70;94.30
43673;DHT22;41723;49.326;8.430;2023-07-13T02:22:33;21.50;92.10
43673;DHT22;41723;49.326;8.430;2023-07-13T02:24:59;21.40;93.60
43673;DHT22;41723;49.326;8.430;2023-07-13T02:27:24;21.30;92.40
43673;DHT22;41723;49.326;8.430;2023-07-13T02:29:50;21.30;93.50
43673;DHT22;41723;49.326;8.430;2023-07-13T02:32:17;21.30;93.50
43673;DHT22;41723;49.326;8.430;2023-07-13T02:34:43;21.30;94.30
43673;DHT22;41723;49.326;8.430;2023-07-13T02:37:09;21.50;94.10
43673;DHT22;41723;49.326;8.430;2023-07-13T02:39:35;21.50;92.70
43673;DHT22;41723;49.326;8.430;2023-07-13T02:42:02;21.40;94.80
43673;DHT22;41723;49.326;8.430;2023-07-13T02:44:28;21.40;93.80
43673;DHT22;41723;49.326;8.430;2023-07-13T02:46:55;21.30;93.30
43673;DHT22;41723;49.326;8.430;2023-07-13T02:49:20;21.30;92.10
43673;DHT22;41723;49.326;8.430;2023-07-13T02:51:46;21.10;92.60
43673;DHT22;41723;49.326;8.430;2023-07-13T02:54:13;21.20;92.60
43673;DHT22;41723;49.326;8.430;2023-07-13T02:56:39;21.10;94.80
43673;DHT22;41723;49.326;8.430;2023-07-13T02:59:23;21.20;95.50
43673;DHT22;41723;49.326;8.430;2023-07-13T03:01:49;21.20;94.30
43673;DHT22;41723;49.326;8.430;2023-07-13T03:04:15;21.20;95.40
43673;DHT22;41723;49.326;8.430;2023-07-13T03:06:44;21.40;95.10
43673;DHT22;41723;49.326;8.430;2023-07-13T03:09:10;21.50;95.50
43673;DHT22;41723;49.326;8.430;2023-07-13T03:11:41;21.40;94.70
43673;DHT22;41723;49.326;8.430;2023-07-13T03:14:20;21.20;94.70
43673;DHT22;41723;49.326;8.430;2023-07-13T03:16:46;21.40;95.60
43673;DHT22;41723;49.326;8.430;2023-07-13T03:19:11;21.40;95.00
43673;DHT22;41723;49.326;8.430;2023-07-13T03:21:38;21.20;94.40
43673;DHT22;41723;49.326;8.430;2023-07-13T03:24:03;21.30;95.20
43673;DHT22;41723;49.326;8.430;2023-07-13T03:26:29;21.10;93.60
43673;DHT22;41723;49.326;8.430;2023-07-13T03:28:56;21.20;93.60
43673;DHT22;41723;49.326;8.430;2023-07-13T03:34:26;21.10;94.10
43673;DHT22;41723;49.326;8.430;2023-07-13T03:36:53;21.00;93.90
43673;DHT22;41723;49.326;8.430;2023-07-13T03:39:19;21.10;95.10
43673;DHT22;41723;49.326;8.430;2023-07-13T03:41:52;21.20;94.90
43673;DHT22;41723;49.326;8.430;2023-07-13T03:44:18;21.20;95.40
43673;DHT22;41723;49.326;8.430;2023-07-13T03:46:44;21.30;95.40
43673;DHT22;41723;49.326;8.430;2023-07-13T03:49:10;21.40;95.20
43673;DHT22;41723;49.326;8.430;2023-07-13T03:51:43;21.40;95.20
43673;DHT22;41723;49.326;8.430;2023-07-13T03:54:09;21.40;95.10
43673;DHT22;41723;49.326;8.430;2023-07-13T03:56:34;21.30;94.40
43673;DHT22;41723;49.326;8.430;2023-07-13T03:59:02;21.20;94.60
43673;DHT22;41723;49.326;8.430;2023-07-13T04:01:29;21.30;94.90
43673;DHT22;41723;49.326;8.430;2023-07-13T04:07:42;20.80;94.60
43673;DHT22;41723;49.326;8.430;2023-07-13T04:10:07;20.90;95.10
43673;DHT22;41723;49.326;8.430;2023-07-13T04:12:33;21.10;95.40
43673;DHT22;41723;49.326;8.430;2023-07-13T04:14:58;21.20;95.70
43673;DHT22;41723;49.326;8.430;2023-07-13T04:17:24;21.20;95.40
43673;DHT22;41723;49.326;8.430;2023-07-13T04:19:50;21.00;94.50
43673;DHT22;41723;49.326;8.430;2023-07-13T04:22:15;20.90;94.60
43673;DHT22;41723;49.326;8.430;2023-07-13T04:24:41;20.80;95.00
43673;DHT22;41723;49.326;8.430;2023-07-13T04:27:06;20.80;95.30
43673;DHT22;41723;49.326;8.430;2023-07-13T04:29:32;20.70;95.20
43673;DHT22;41723;49.326;8.430;2023-07-13T04:31:58;20.80;95.60
43673;DHT22;41723;49.326;8.430;2023-07-13T04:34:24;20.80;95.60
43673;DHT22;41723;49.326;8.430;2023-07-13T04:36:50;20.90;95.70
43673;DHT22;41723;49.326;8.430;2023-07-13T04:39:15;21.00;95.90
43673;DHT22;41723;49.326;8.430;2023-07-13T04:41:41;21.10;94.80
43673;DHT22;41723;49.326;8.430;2023-07-13T04:44:07;21.20;95.30
43673;DHT22;41723;49.326;8.430;2023-07-13T04:46:32;21.20;95.70
43673;DHT22;41723;49.326;8.430;2023-07-13T04:52:33;21.30;95.20
43673;DHT22;41723;49.326;8.430;2023-07-13T04:54:59;21.30;95.70
43673;DHT22;41723;49.326;8.430;2023-07-13T04:57:26;21.30;95.30
43673;DHT22;41723;49.326;8.430;2023-07-13T04:59:51;21.30;95.90
43673;DHT22;41723;49.326;8.430;2023-07-13T05:02:17;21.30;95.40
43673;DHT22;41723;49.326;8.430;2023-07-13T05:04:45;21.40;95.30
43673;DHT22;41723;49.326;8.430;2023-07-13T05:07:11;21.20;94.60
43673;DHT22;41723;49.326;8.430;2023-07-13T05:13:12;21.30;95.50
43673;DHT22;41723;49.326;8.430;2023-07-13T05:15:38;21.30;96.00
43673;DHT22;41723;49.326;8.430;2023-07-13T05:18:03;21.30;95.70
43673;DHT22;41723;49.326;8.430;2023-07-13T05:20:29;21.20;94.20
43673;DHT22;41723;49.326;8.430;2023-07-13T05:22:55;21.20;95.20
43673;DHT22;41723;49.326;8.430;2023-07-13T05:25:20;21.20;95.20
43673;DHT22;41723;49.326;8.430;2023-07-13T05:27:46;21.10;94.40
43673;DHT22;41723;49.326;8.430;2023-07-13T05:30:12;21.10;95.30
43673;DHT22;41723;49.326;8.430;2023-07-13T05:32:38;21.30;96.40
43673;DHT22;41723;49.326;8.430;2023-07-13T05:35:04;21.40;95.20
43673;DHT22;41723;49.326;8.430;2023-07-13T05:37:30;21.30;94.10
43673;DHT22;41723;49.326;8.430;2023-07-13T05:39:56;21.20;95.30
43673;DHT22;41723;49.326;8.430;2023-07-13T05:42:22;21.20;95.50
43673;DHT22;41723;49.326;8.430;2023-07-13T05:44:47;21.20;95.50
43673;DHT22;41723;49.326;8.430;2023-07-13T05:47:13;21.30;96.20
43673;DHT22;41723;49.326;8.430;2023-07-13T05:49:40;21.40;95.20
43673;DHT22;41723;49.326;8.430;2023-07-13T05:52:06;21.30;95.10
43673;DHT22;41723;49.326;8.430;2023-07-13T05:54:31;21.30;94.00
43673;DHT22;41723;49.326;8.430;2023-07-13T05:56:57;21.10;95.60
43673;DHT22;41723;49.326;8.430;2023-07-13T05:59:22;21.20;95.00
43673;DHT22;41723;49.326;8.430;2023-07-13T06:01:48;21.20;95.90
43673;DHT22;41723;49.326;8.430;2023-07-13T06:04:14;21.30;95.20
43673;DHT22;41723;49.326;8.430;2023-07-13T06:06:40;21.30;95.20
43673;DHT22;41723;49.326;8.430;2023-07-13T06:09:05;21.40;95.60
43673;DHT22;41723;49.326;8.430;2023-07-13T06:11:31;21.60;96.40
43673;DHT22;41723;49.326;8.430;2023-07-13T06:13:56;22.00;95.90
43673;DHT22;41723;49.326;8.430;2023-07-13T06:16:22;22.20;95.40
43673;DHT22;41723;49.326;8.430;2023-07-13T06:18:48;22.30;93.30
43673;DHT22;41723;49.326;8.430;2023-07-13T06:21:18;22.50;95.50
43673;DHT22;41723;49.326;8.430;2023-07-13T06:23:44;22.60;93.80
43673;DHT22;41723;49.326;8.430;2023-07-13T06:26:10;22.90;94.30
43673;DHT22;41723;49.326;8.430;2023-07-13T06:28:36;22.90;93.40
43673;DHT22;41723;49.326;8.430;2023-07-13T06:31:04;22.90;93.70
43673;DHT22;41723;49.326;8.430;2023-07-13T06:33:30;22.90;93.60
43673;DHT22;41723;49.326;8.430;2023-07-13T06:35:55;23.00;93.60
43673;DHT22;41723;49.326;8.430;2023-07-13T06:38:21;23.10;92.40
43673;DHT22;41723;49.326;8.430;2023-07-13T06:40:47;23.10;93.10
43673;DHT22;41723;49.326;8.430;2023-07-13T06:43:12;23.10;92.60
43673;DHT22;41723;49.326;8.430;2023-07-13T06:45:42;22.90;92.10
43673;DHT22;41723;49.326;8.430;2023-07-13T06:48:08;22.90;90.60
43673;DHT22;41723;49.326;8.430;2023-07-13T06:50:34;22.80;91.10
43673;DHT22;41723;49.326;8.430;2023-07-13T06:52:59;22.70;90.90
43673;DHT22;41723;49.326;8.430;2023-07-13T06:55:25;22.70;91.30
43673;DHT22;41723;49.326;8.430;2023-07-13T06:57:51;22.60;91.40
43673;DHT22;41723;49.326;8.430;2023-07-13T07:00:17;22.30;91.70
43673;DHT22;41723;49.326;8.430;2023-07-13T07:02:42;22.40;91.50
43673;DHT22;41723;49.326;8.430;2023-07-13T07:05:08;22.50;91.40
43673;DHT22;41723;49.326;8.430;2023-07-13T07:07:34;22.60;90.80
43673;DHT22;41723;49.326;8.430;2023-07-13T07:09:59;22.60;90.70
43673;DHT22;41723;49.326;8.430;2023-07-13T07:12:25;22.60;90.50
43673;DHT22;41723;49.326;8.430;2023-07-13T07:14:50;22.60;90.50
43673;DHT22;41723;49.326;8.430;2023-07-13T07:17:16;22.70;90.30
43673;DHT22;41723;49.326;8.430;2023-07-13T07:19:42;22.70;90.00
43673;DHT22;41723;49.326;8.430;2023-07-13T07:22:07;22.70;90.00
43673;DHT22;41723;49.326;8.430;2023-07-13T07:24:33;22.60;90.30
43673;DHT22;41723;49.326;8.430;2023-07-13T07:26:58;22.80;89.60
43673;DHT22;41723;49.326;8.430;2023-07-13T07:29:24;22.70;89.40
43673;DHT22;41723;49.326;8.430;2023-07-13T07:31:51;22.70;89.50
43673;DHT22;41723;49.326;8.430;2023-07-13T07:34:17;22.80;90.00
43673;DHT22;41723;49.326;8.430;2023-07-13T07:36:43;22.90;90.00
43673;DHT22;41723;49.326;8.430;2023-07-13T07:39:08;22.60;89.40
43673;DHT22;41723;49.326;8.430;2023-07-13T07:41:34;22.70;90.30
43673;DHT22;41723;49.326;8.430;2023-07-13T07:43:59;22.80;90.30
43673;DHT22;41723;49.326;8.430;2023-07-13T07:46:25;23.00;90.10
43673;DHT22;41723;49.326;8.430;2023-07-13T07:48:51;23.00;89.50
43673;DHT22;41723;49.326;8.430;2023-07-13T07:51:16;23.10;90.60
43673;DHT22;41723;49.326;8.430;2023-07-13T07:53:42;23.20;90.00
43673;DHT22;41723;49.326;8.430;2023-07-13T07:56:07;23.30;89.60
43673;DHT22;41723;49.326;8.430;2023-07-13T07:58:35;23.20;89.30
43673;DHT22;41723;49.326;8.430;2023-07-13T08:01:06;23.20;89.60
43673;DHT22;41723;49.326;8.430;2023-07-13T08:03:32;23.10;90.00
43673;DHT22;41723;49.326;8.430;2023-07-13T08:05:58;23.00;90.30
43673;DHT22;41723;49.326;8.430;2023-07-13T08:08:24;23.10;90.00
43673;DHT22;41723;49.326;8.430;2023-07-13T08:10:49;23.10;90.20
43673;DHT22;41723;49.326;8.430;2023-07-13T08:13:15;23.00;90.30
43673;DHT22;41723;49.326;8.430;2023-07-13T08:15:40;23.00;90.30
43673;DHT22;41723;49.326;8.430;2023-07-13T08:18:06;23.00;90.50
43673;DHT22;41723;49.326;8.430;2023-07-13T08:20:36;23.10;90.20
43673;DHT22;41723;49.326;8.430;2023-07-13T08:23:01;23.20;90.20
43673;DHT22;41723;49.326;8.430;2023-07-13T08:25:27;23.30;89.70
43673;DHT22;41723;49.326;8.430;2023-07-13T08:27:52;23.30;90.00
43673;DHT22;41723;49.326;8.430;2023-07-13T08:30:18;23.30;89.60
43673;DHT22;41723;49.326;8.430;2023-07-13T08:32:44;23.20;89.50
43673;DHT22;41723;49.326;8.430;2023-07-13T08:35:09;23.20;89.40
43673;DHT22;41723;49.326;8.430;2023-07-13T08:37:35;23.20;89.70
43673;DHT22;41723;49.326;8.430;2023-07-13T08:40:03;23.20;89.60
43673;DHT22;41723;49.326;8.430;2023-07-13T08:45:13;23.40;88.80
43673;DHT22;41723;49.326;8.430;2023-07-13T08:47:45;23.50;88.90
43673;DHT22;41723;49.326;8.430;2023-07-13T08:50:14;23.50;88.90
43673;DHT22;41723;49.326;8.430;2023-07-13T08:52:40;23.50;88.80
43673;DHT22;41723;49.326;8.430;2023-07-13T08:57:38;23.70;88.80
43673;DHT22;41723;49.326;8.430;2023-07-13T09:00:05;23.80;87.40
43673;DHT22;41723;49.326;8.430;2023-07-13T09:02:39;23.90;87.80
43673;DHT22;41723;49.326;8.430;2023-07-13T09:05:17;23.80;86.60
43673;DHT22;41723;49.326;8.430;2023-07-13T09:08:09;23.70;87.80
43673;DHT22;41723;49.326;8.430;2023-07-13T09:10:36;23.80;87.70
43673;DHT22;41723;49.326;8.430;2023-07-13T09:15:41;23.90;87.50
43673;DHT22;41723;49.326;8.430;2023-07-13T09:18:14;24.00;86.60
43673;DHT22;41723;49.326;8.430;2023-07-13T09:23:09;24.00;87.30
43673;DHT22;41723;49.326;8.430;2023-07-13T09:25:37;24.10;86.60
43673;DHT22;41723;49.326;8.430;2023-07-13T09:28:09;24.10;86.70
43673;DHT22;41723;49.326;8.430;2023-07-13T09:30:45;24.30;86.70
43673;DHT22;41723;49.326;8.430;2023-07-13T09:33:11;24.40;85.90
43673;DHT22;41723;49.326;8.430;2023-07-13T09:35:37;24.60;85.70
43673;DHT22;41723;49.326;8.430;2023-07-13T09:38:12;24.60;85.70
43673;DHT22;41723;49.326;8.430;2023-07-13T09:43:14;24.70;85.90
43673;DHT22;41723;49.326;8.430;2023-07-13T09:45:40;24.80;85.30
43673;DHT22;41723;49.326;8.430;2023-07-13T09:48:07;24.70;85.50
43673;DHT22;41723;49.326;8.430;2023-07-13T09:50:36;24.50;85.20
43673;DHT22;41723;49.326;8.430;2023-07-13T09:53:02;24.40;85.60
43673;DHT22;41723;49.326;8.430;2023-07-13T09:57:56;24.20;85.90
43673;DHT22;41723;49.326;8.430;2023-07-13T10:00:26;24.10;85.90
43673;DHT22;41723;49.326;8.430;2023-07-13T10:03:00;24.20;86.00
43673;DHT22;41723;49.326;8.430;2023-07-13T10:05:25;24.30;85.20
43673;DHT22;41723;49.326;8.430;2023-07-13T10:07:51;24.60;85.80
43673;DHT22;41723;49.326;8.430;2023-07-13T10:10:18;24.90;84.30
43673;DHT22;41723;49.326;8.430;2023-07-13T10:12:45;25.10;83.20
43673;DHT22;41723;49.326;8.430;2023-07-13T10:15:15;25.30;81.70
43673;DHT22;41723;49.326;8.430;2023-07-13T10:17:41;25.20;81.00
43673;DHT22;41723;49.326;8.430;2023-07-13T10:20:09;25.30;80.80
43673;DHT22;41723;49.326;8.430;2023-07-13T10:25:24;25.20;79.40
43673;DHT22;41723;49.326;8.430;2023-07-13T10:27:51;24.90;80.10
43673;DHT22;41723;49.326;8.430;2023-07-13T10:30:21;25.00;81.30
43673;DHT22;41723;49.326;8.430;2023-07-13T10:32:48;25.20;81.00
43673;DHT22;41723;49.326;8.430;2023-07-13T10:35:15;25.30;80.30
43673;DHT22;41723;49.326;8.430;2023-07-13T10:40:19;25.20;78.10
43673;DHT22;41723;49.326;8.430;2023-07-13T10:42:46;25.30;78.00
43673;DHT22;41723;49.326;8.430;2023-07-13T10:45:14;25.40;78.20
43673;DHT22;41723;49.326;8.430;2023-07-13T10:47:40;25.50;78.20
43673;DHT22;41723;49.326;8.430;2023-07-13T10:50:08;25.30;77.50
43673;DHT22;41723;49.326;8.430;2023-07-13T10:55:29;25.00;77.80
43673;DHT22;41723;49.326;8.430;2023-07-13T10:57:52;25.00;78.20
43673;DHT22;41723;49.326;8.430;2023-07-13T11:00:18;25.10;79.30
43673;DHT22;41723;49.326;8.430;2023-07-13T11:02:44;25.10;78.50
43673;DHT22;41723;49.326;8.430;2023-07-13T11:07:54;24.90;79.30
43673;DHT22;41723;49.326;8.430;2023-07-13T11:16:00;24.80;77.70
43673;DHT22;41723;49.326;8.430;2023-07-13T11:18:25;24.80;77.60
43673;DHT22;41723;49.326;8.430;2023-07-13T11:20:51;24.80;78.40
43673;DHT22;41723;49.326;8.430;2023-07-13T11:29:48;25.10;75.90
43673;DHT22;41723;49.326;8.430;2023-07-13T11:32:29;25.20;75.40
43673;DHT22;41723;49.326;8.430;2023-07-13T11:34:55;25.40;74.20
43673;DHT22;41723;49.326;8.430;2023-07-13T11:37:21;25.40;74.30
43673;DHT22;41723;49.326;8.430;2023-07-13T11:39:47;25.30;74.60
43673;DHT22;41723;49.326;8.430;2023-07-13T11:42:14;25.40;75.10
43673;DHT22;41723;49.326;8.430;2023-07-13T11:44:45;25.70;75.10
43673;DHT22;41723;49.326;8.430;2023-07-13T11:47:14;26.10;75.30
43673;DHT22;41723;49.326;8.430;2023-07-13T11:49:44;26.10;73.50
43673;DHT22;41723;49.326;8.430;2023-07-13T11:52:11;25.80;74.60
43673;DHT22;41723;49.326;8.430;2023-07-13T11:54:43;25.70;74.50
43673;DHT22;41723;49.326;8.430;2023-07-13T11:57:26;25.90;74.00
43673;DHT22;41723;49.326;8.430;2023-07-13T11:59:53;26.00;74.50
43673;DHT22;41723;49.326;8.430;2023-07-13T12:02:38;26.00;74.40
43673;DHT22;41723;49.326;8.430;2023-07-13T12:05:05;26.10;73.50
43673;DHT22;41723;49.326;8.430;2023-07-13T12:07:32;26.50;73.10
43673;DHT22;41723;49.326;8.430;2023-07-13T12:12:45;26.90;72.70
43673;DHT22;41723;49.326;8.430;2023-07-13T12:15:10;27.10;71.90
43673;DHT22;41723;49.326;8.430;2023-07-13T12:17:36;26.80;70.90
43673;DHT22;41723;49.326;8.430;2023-07-13T12:20:03;26.70;72.20
43673;DHT22;41723;49.326;8.430;2023-07-13T12:22:36;26.80;72.60
43673;DHT22;41723;49.326;8.430;2023-07-13T12:25:01;26.60;72.10
43673;DHT22;41723;49.326;8.430;2023-07-13T12:27:27;26.40;73.10
43673;DHT22;41723;49.326;8.430;2023-07-13T12:30:01;26.20;72.50
43673;DHT22;41723;49.326;8.430;2023-07-13T12:32:27;26.00;72.70
43673;DHT22;41723;49.326;8.430;2023-07-13T12:34:53;26.00;72.40
43673;DHT22;41723;49.326;8.430;2023-07-13T12:37:19;26.00;72.80
43673;DHT22;41723;49.326;8.430;2023-07-13T12:39:46;25.80;73.10
43673;DHT22;41723;49.326;8.430;2023-07-13T12:44:45;25.80;73.90
43673;DHT22;41723;49.326;8.430;2023-07-13T12:47:12;25.70;72.40
43673;DHT22;41723;49.326;8.430;2023-07-13T12:49:42;25.70;71.70
43673;DHT22;41723;49.326;8.430;2023-07-13T12:52:20;25.50;72.00
43673;DHT22;41723;49.326;8.430;2023-07-13T12:54:55;25.60;73.00
43673;DHT22;41723;49.326;8.430;2023-07-13T12:57:24;25.60;72.60
43673;DHT22;41723;49.326;8.430;2023-07-13T12:59:52;25.60;72.60
43673;DHT22;41723;49.326;8.430;2023-07-13T13:02:32;25.70;73.30
43673;DHT22;41723;49.326;8.430;2023-07-13T13:04:58;25.70;72.60
43673;DHT22;41723;49.326;8.430;2023-07-13T13:07:24;25.70;72.50
43673;DHT22;41723;49.326;8.430;2023-07-13T13:09:50;25.70;73.10
43673;DHT22;41723;49.326;8.430;2023-07-13T13:12:17;25.70;72.80
43673;DHT22;41723;49.326;8.430;2023-07-13T13:14:42;25.70;72.90
43673;DHT22;41723;49.326;8.430;2023-07-13T13:17:24;25.70;72.40
43673;DHT22;41723;49.326;8.430;2023-07-13T13:19:52;25.70;73.20
43673;DHT22;41723;49.326;8.430;2023-07-13T13:22:19;25.70;71.80
43673;DHT22;41723;49.326;8.430;2023-07-13T13:24:45;25.70;71.80
43673;DHT22;41723;49.326;8.430;2023-07-13T13:27:14;25.70;71.00
43673;DHT22;41723;49.326;8.430;2023-07-13T13:29:41;25.70;71.80
43673;DHT22;41723;49.326;8.430;2023-07-13T13:32:09;25.70;71.50
43673;DHT22;41723;49.326;8.430;2023-07-13T13:34:35;25.70;70.70
43673;DHT22;41723;49.326;8.430;2023-07-13T13:37:01;25.70;70.30
43673;DHT22;41723;49.326;8.430;2023-07-13T13:39:32;25.90;70.80
43673;DHT22;41723;49.326;8.430;2023-07-13T13:41:59;26.00;71.10
43673;DHT22;41723;49.326;8.430;2023-07-13T13:44:24;25.90;71.30
43673;DHT22;41723;49.326;8.430;2023-07-13T13:46:52;25.90;72.00
43673;DHT22;41723;49.326;8.430;2023-07-13T13:49:19;25.90;72.40
43673;DHT22;41723;49.326;8.430;2023-07-13T13:51:46;26.10;73.60
43673;DHT22;41723;49.326;8.430;2023-07-13T13:54:12;26.10;72.50
43673;DHT22;41723;49.326;8.430;2023-07-13T13:56:41;26.20;73.30
43673;DHT22;41723;49.326;8.430;2023-07-13T13:59:06;26.10;72.50
43673;DHT22;41723;49.326;8.430;2023-07-13T14:01:34;26.20;72.60
43673;DHT22;41723;49.326;8.430;2023-07-13T14:03:59;26.40;72.50
43673;DHT22;41723;49.326;8.430;2023-07-13T14:06:25;26.50;73.30
43673;DHT22;41723;49.326;8.430;2023-07-13T14:08:51;26.60;72.10
43673;DHT22;41723;49.326;8.430;2023-07-13T14:11:18;26.50;72.30
43673;DHT22;41723;49.326;8.430;2023-07-13T14:16:16;26.20;72.10
43673;DHT22;41723;49.326;8.430;2023-07-13T14:18:45;25.90;71.60
43673;DHT22;41723;49.326;8.430;2023-07-13T14:21:19;26.00;73.00
43673;DHT22;41723;49.326;8.430;2023-07-13T14:23:45;26.00;72.50
43673;DHT22;41723;49.326;8.430;2023-07-13T14:26:12;25.80;72.20
43673;DHT22;41723;49.326;8.430;2023-07-13T14:28:38;25.90;72.20
43673;DHT22;41723;49.326;8.430;2023-07-13T14:31:06;26.00;72.20
43673;DHT22;41723;49.326;8.430;2023-07-13T14:33:31;26.10;71.40
43673;DHT22;41723;49.326;8.430;2023-07-13T14:35:57;26.20;72.20
43673;DHT22;41723;49.326;8.430;2023-07-13T14:38:22;26.20;72.40
43673;DHT22;41723;49.326;8.430;2023-07-13T14:40:48;26.20;72.70
43673;DHT22;41723;49.326;8.430;2023-07-13T14:43:15;26.30;73.20
43673;DHT22;41723;49.326;8.430;2023-07-13T14:45:41;26.10;73.30
43673;DHT22;41723;49.326;8.430;2023-07-13T14:48:41;26.10;73.50
43673;DHT22;41723;49.326;8.430;2023-07-13T14:50:59;25.80;73.60
43673;DHT22;41723;49.326;8.430;2023-07-13T14:53:25;25.60;73.70
43673;DHT22;41723;49.326;8.430;2023-07-13T14:55:53;25.60;74.10
43673;DHT22;41723;49.326;8.430;2023-07-13T14:58:18;25.50;73.80
43673;DHT22;41723;49.326;8.430;2023-07-13T15:00:44;25.80;74.20
43673;DHT22;41723;49.326;8.430;2023-07-13T15:03:21;25.80;73.10
43673;DHT22;41723;49.326;8.430;2023-07-13T15:05:48;25.90;73.20
43673;DHT22;41723;49.326;8.430;2023-07-13T15:08:14;26.00;72.70
43673;DHT22;41723;49.326;8.430;2023-07-13T15:10:40;26.00;73.40
43673;DHT22;41723;49.326;8.430;2023-07-13T15:13:16;26.10;73.10
43673;DHT22;41723;49.326;8.430;2023-07-13T15:15:42;26.20;72.40
43673;DHT22;41723;49.326;8.430;2023-07-13T15:18:09;26.00;72.20
43673;DHT22;41723;49.326;8.430;2023-07-13T15:20:36;25.80;73.30
43673;DHT22;41723;49.326;8.430;2023-07-13T15:23:02;25.90;72.70
43673;DHT22;41723;49.326;8.430;2023-07-13T15:25:28;25.90;73.00
43673;DHT22;41723;49.326;8.430;2023-07-13T15:27:56;25.90;73.70
43673;DHT22;41723;49.326;8.430;2023-07-13T15:30:22;26.00;73.90
43673;DHT22;41723;49.326;8.430;2023-07-13T15:32:48;26.20;73.20
43673;DHT22;41723;49.326;8.430;2023-07-13T15:35:14;26.30;73.30
43673;DHT22;41723;49.326;8.430;2023-07-13T15:37:41;26.20;72.90
43673;DHT22;41723;49.326;8.430;2023-07-13T15:40:07;26.20;72.30
43673;DHT22;41723;49.326;8.430;2023-07-13T15:42:32;26.30;72.90
43673;DHT22;41723;49.326;8.430;2023-07-13T15:44:58;26.40;72.10
43673;DHT22;41723;49.326;8.430;2023-07-13T15:47:24;26.30;72.20
43673;DHT22;41723;49.326;8.430;2023-07-13T15:49:49;26.20;73.00
43673;DHT22;41723;49.326;8.430;2023-07-13T15:52:18;26.20;72.50
43673;DHT22;41723;49.326;8.430;2023-07-13T15:54:45;26.20;72.00
43673;DHT22;41723;49.326;8.430;2023-07-13T15:57:12;26.30;71.70
43673;DHT22;41723;49.326;8.430;2023-07-13T15:59:38;26.30;72.20
43673;DHT22;41723;49.326;8.430;2023-07-13T16:02:11;26.20;71.80
43673;DHT22;41723;49.326;8.430;2023-07-13T16:04:37;26.20;72.30
43673;DHT22;41723;49.326;8.430;2023-07-13T16:07:02;26.20;73.00
43673;DHT22;41723;49.326;8.430;2023-07-13T16:09:28;26.30;73.30
43673;DHT22;41723;49.326;8.430;2023-07-13T16:11:54;26.40;73.30
43673;DHT22;41723;49.326;8.430;2023-07-13T16:14:22;26.50;72.60
43673;DHT22;41723;49.326;8.430;2023-07-13T16:16:50;26.30;72.60
43673;DHT22;41723;49.326;8.430;2023-07-13T16:19:16;26.30;72.50
43673;DHT22;41723;49.326;8.430;2023-07-13T16:21:45;26.30;73.60
43673;DHT22;41723;49.326;8.430;2023-07-13T16:24:18;26.30;73.10
43673;DHT22;41723;49.326;8.430;2023-07-13T16:26:46;26.30;73.10
43673;DHT22;41723;49.326;8.430;2023-07-13T16:29:12;26.20;73.20